Time;durP1;ratioP1;P1;durP2;ratioP2;P2;SDS_P1;SDS_P2;PMS_P1;PMS_P2;Temp;Humidity;BMP_temperature;BMP_pressure;BME280_temperature;BME280_humidity;BME280_pressure;Samples;Min_cycle;Max_cycle;Signal;HPM_P1;HPM_P2
2022/11/18 00:02:28;;;;;;;0.50;0.33;;;;;;;;;;20895983;28;20217;-68
2022/11/18 00:22:50;;;;;;;0.67;0.40;;;;;;;;;;20914039;28;20206;-68
2022/11/18 00:32:51;;;;;;;1.13;0.60;;;;;;;;;;20913016;28;20272;-68
2022/11/18 00:42:55;;;;;;;0.90;0.57;;;;;;;;;;20912147;28;20210;-68
2022/11/18 00:52:56;;;;;;;0.70;0.50;;;;;;;;;;21052666;28;20217;-68
2022/11/18 01:02:58;;;;;;;1.03;0.60;;;;;;;;;;21077696;28;20246;-68
2022/11/18 01:13:18;;;;;;;1.73;0.70;;;;;;;;;;21074314;28;20224;-68
2022/11/18 01:23:20;;;;;;;0.83;0.60;;;;;;;;;;21075672;28;20680;-68
2022/11/18 01:33:22;;;;;;;1.90;0.87;;;;;;;;;;21074669;28;20277;-68
2022/11/18 01:43:23;;;;;;;0.93;0.83;;;;;;;;;;21073843;28;20208;-68
2022/11/18 01:53:31;;;;;;;1.83;0.80;;;9.60;99.90;;;;;;21041318;28;20221;-67
2022/11/18 02:03:34;;;;;;;2.67;0.90;;;9.50;99.90;;;;;;20926741;28;20226;-68
2022/11/18 02:13:36;;;;;;;1.40;0.87;;;;;;;;;;20958966;28;20229;-68
2022/11/18 02:23:56;;;;;;;1.87;0.97;;;;;;;;;;20986009;28;20245;-68
2022/11/18 02:34:13;;;;;;;0.70;0.53;;;9.60;99.90;;;;;;20986951;28;20563;-68
2022/11/18 02:44:16;;;;;;;1.60;1.00;;;9.50;99.90;;;;;;20985156;28;20223;-68
2022/11/18 02:54:20;;;;;;;0.97;0.60;;;;;;;;;;20984082;28;20765;-68
2022/11/18 03:04:23;;;;;;;1.13;0.70;;;;;;;;;;20983398;28;20700;-68
2022/11/18 03:14:31;;;;;;;1.67;0.77;;;;;;;;;;20982695;28;20235;-68
2022/11/18 03:24:34;;;;;;;0.97;0.57;;;;;;;;;;20984357;28;20201;-67
2022/11/18 03:34:47;;;;;;;0.87;0.63;;;;;;;;;;20993929;28;20270;-68
2022/11/18 03:44:53;;;;;;;1.33;0.93;;;9.50;99.90;;;;;;20998245;28;20247;-68
2022/11/18 03:54:59;;;;;;;0.97;0.60;;;9.50;99.90;;;;;;20998096;28;20587;-68
2022/11/18 04:05:02;;;;;;;0.87;0.50;;;;;;;;;;21059264;22;20220;-67
2022/11/18 04:15:04;;;;;;;1.40;0.53;;;9.60;99.90;;;;;;20991555;28;20279;-67
2022/11/18 04:25:07;;;;;;;0.83;0.40;;;;;;;;;;20980917;28;20617;-67
2022/11/18 04:35:09;;;;;;;0.37;0.30;;;;;;;;;;20972535;28;20213;-67
2022/11/18 04:45:11;;;;;;;0.33;0.30;;;;;;;;;;20974025;28;20221;-68
2022/11/18 04:55:13;;;;;;;0.20;0.20;;;;;;;;;;20966923;28;20225;-68
2022/11/18 05:05:15;;;;;;;0.10;0.10;;;;;;;;;;20962467;28;20573;-67
2022/11/18 05:15:22;;;;;;;0.60;0.50;;;;;;;;;;20944840;28;20209;-67
2022/11/18 05:25:24;;;;;;;0.10;0.10;;;;;;;;;;20945230;28;20209;-67
2022/11/18 05:35:26;;;;;;;0.20;0.20;;;;;;;;;;20960168;28;20213;-67
2022/11/18 05:45:28;;;;;;;2.27;0.20;;;;;;;;;;20958965;28;20761;-67
2022/11/18 05:56:12;;;;;;;0.10;0.10;;;9.20;99.90;;;;;;20957364;28;20632;-67
2022/11/18 06:06:16;;;;;;;0.10;0.10;;;;;;;;;;20938960;28;20582;-67
2022/11/18 06:16:22;;;;;;;0.10;0.10;;;9.20;99.90;;;;;;20972664;28;20583;-68
2022/11/18 06:26:23;;;;;;;0.67;0.20;;;;;;;;;;20970247;28;20570;-68
2022/11/18 06:36:25;;;;;;;0.17;0.17;;;;;;;;;;20940543;28;20218;-68
2022/11/18 06:56:48;;;;;;;0.10;0.10;;;;;;;;;;20905945;28;20275;-66
2022/11/18 07:06:50;;;;;;;0.10;0.10;;;;;;;;;;20883747;28;20233;-66
2022/11/18 07:16:52;;;;;;;0.10;0.10;;;;;;;;;;20926413;28;20244;-67
2022/11/18 07:26:54;;;;;;;1.07;0.30;;;;;;;;;;20934732;28;20289;-66
2022/11/18 07:36:56;;;;;;;0.20;0.20;;;;;;;;;;20947344;28;20278;-67
2022/11/18 07:46:57;;;;;;;0.77;0.20;;;;;;;;;;20951326;28;20761;-67
2022/11/18 07:56:59;;;;;;;0.10;0.10;;;;;;;;;;20950500;28;20357;-67
2022/11/18 08:07:01;;;;;;;4.37;0.30;;;;;;;;;;20964944;28;20241;-67
2022/11/18 08:17:03;;;;;;;0.63;0.30;;;;;;;;;;20953533;28;20197;-66
2022/11/18 08:27:05;;;;;;;0.63;0.20;;;;;;;;;;20980613;28;20232;-67
2022/11/18 08:37:10;;;;;;;0.10;0.10;;;9.10;99.90;;;;;;20979820;28;20217;-67
2022/11/18 08:47:12;;;;;;;0.40;0.27;;;;;;;;;;20962876;28;20221;-67
2022/11/18 08:57:14;;;;;;;0.53;0.40;;;;;;;;;;20962530;28;20275;-66
2022/11/18 09:07:16;;;;;;;0.40;0.30;;;;;;;;;;20978319;28;20270;-67
2022/11/18 09:17:19;;;;;;;0.30;0.30;;;;;;;;;;20977324;28;20221;-67
2022/11/18 09:27:20;;;;;;;0.40;0.30;;;;;;;;;;20975618;28;20243;-67
2022/11/18 09:37:22;;;;;;;0.50;0.40;;;;;;;;;;20959654;28;20275;-67
2022/11/18 09:47:26;;;;;;;0.40;0.40;;;;;;;;;;20959196;28;20282;-67
2022/11/18 09:57:35;;;;;;;0.23;0.23;;;;;;;;;;20973782;28;20863;-67
2022/11/18 10:07:53;;;;;;;0.50;0.30;;;10.20;99.90;;;;;;20946516;22;20233;-76
2022/11/18 10:18:11;;;;;;;0.93;0.40;;;10.10;99.90;;;;;;20895373;28;20230;-76
2022/11/18 10:28:24;;;;;;;0.53;0.50;;;;;;;;;;20896135;28;20229;-75
2022/11/18 10:38:25;;;;;;;0.93;0.40;;;;;;;;;;20902494;28;20213;-75
2022/11/18 10:48:27;;;;;;;1.33;0.50;;;;;;;;;;20901219;28;20230;-76
2022/11/18 10:58:30;;;;;;;0.47;0.30;;;;;;;;;;20901471;28;20580;-76
2022/11/18 11:08:32;;;;;;;0.67;0.47;;;;;;;;;;20901296;28;20279;-77
2022/11/18 11:18:42;;;;;;;0.80;0.50;;;;;;;;;;20897192;28;20774;-76
2022/11/18 11:28:56;;;;;;;1.03;0.40;;;11.00;99.90;;;;;;20886715;28;20255;-76
2022/11/18 11:39:07;;;;;;;0.50;0.30;;;;;;;;;;20897190;28;20601;-76
2022/11/18 11:49:28;;;;;;;0.67;0.40;;;11.20;99.90;;;;;;20898060;28;20683;-76
2022/11/18 11:59:49;;;;;;;0.20;0.20;;;;;;;;;;20914067;28;20604;-76
2022/11/18 12:10:04;;;;;;;0.20;0.20;;;;;;;;;;20916162;28;20299;-74
2022/11/18 12:20:26;;;;;;;0.40;0.40;;;;;;;;;;20915303;28;20231;-74
2022/11/18 12:30:28;;;;;;;3.67;1.80;;;;;;;;;;20893419;28;20222;-74
2022/11/18 12:40:36;;;;;;;1.70;0.60;;;;;;;;;;20902737;28;20701;-74
2022/11/18 12:50:52;;;;;;;0.70;0.40;;;10.80;99.90;;;;;;20912189;28;20252;-74
2022/11/18 13:01:05;;;;;;;0.50;0.40;;;;;;;;;;20900296;28;20226;-74
2022/11/18 13:32:15;;;;;;;0.77;0.40;;;;;;;;;;20951564;28;20221;-74
2022/11/18 13:42:25;;;;;;;0.40;0.40;;;11.40;99.90;;;;;;20986885;28;20209;-74
2022/11/18 13:52:30;;;;;;;0.30;0.30;;;;;;;;;;20985663;28;20240;-74
2022/11/18 14:02:39;;;;;;;4.20;0.80;;;11.10;99.90;;;;;;20986405;28;20213;-75
2022/11/18 14:12:41;;;;;;;2.23;0.53;;;;;;;;;;20984393;28;20302;-75
2022/11/18 14:22:44;;;;;;;4.13;0.50;;;;;;;;;;20983970;28;20715;-76
2022/11/18 14:33:02;;;;;;;0.60;0.40;;;;;;;;;;20977345;28;20294;-76
2022/11/18 14:43:04;;;;;;;0.70;0.30;;;;;;;;;;20977231;28;20199;-75
2022/11/18 14:53:06;;;;;;;0.40;0.40;;;;;;;;;;20979648;28;20205;-75
2022/11/18 15:03:08;;;;;;;0.43;0.27;;;10.60;99.90;;;;;;20961403;28;20206;-75
2022/11/18 15:13:09;;;;;;;1.17;0.40;;;;;;;;;;20927644;28;20214;-75
2022/11/18 15:23:11;;;;;;;0.87;0.40;;;;;;;;;;20895334;28;20228;-75
2022/11/18 15:33:13;;;;;;;2.30;0.50;;;;;;;;;;20888345;28;20326;-74
2022/11/18 15:43:16;;;;;;;0.90;0.47;;;;;;;;;;20913448;28;20295;-74
2022/11/18 15:53:18;;;;;;;1.23;0.50;;;;;;;;;;20888648;28;20723;-74
2022/11/18 16:13:39;;;;;;;0.80;0.50;;;;;;;;;;20789367;28;20656;-67
2022/11/18 16:23:41;;;;;;;1.00;0.50;;;;;;;;;;20829883;28;20500;-67
2022/11/18 16:33:43;;;;;;;0.77;0.30;;;;;;;;;;20810675;28;20259;-67
2022/11/18 16:43:51;;;;;;;1.80;0.23;;;;;;;;;;20789356;28;20305;-66
2022/11/18 16:53:54;;;;;;;0.43;0.40;;;10.40;99.90;;;;;;20765144;28;20313;-67
2022/11/18 17:03:56;;;;;;;0.80;0.50;;;;;;;;;;20770923;28;20665;-68
2022/11/18 17:14:00;;;;;;;1.13;0.43;;;;;;;;;;20879295;28;20218;-68
2022/11/18 17:24:04;;;;;;;3.27;1.13;;;;;;;;;;20904602;28;20230;-67
2022/11/18 17:34:05;;;;;;;1.37;0.70;;;;;;;;;;20906342;28;20322;-68
2022/11/18 17:44:08;;;;;;;2.23;1.07;;;;;;;;;;20921305;28;20289;-67
2022/11/18 17:54:11;;;;;;;0.63;0.47;;;;;;;;;;20937026;28;20249;-67
2022/11/18 18:04:13;;;;;;;0.57;0.50;;;10.10;99.90;;;;;;20885039;28;20683;-68
2022/11/18 18:14:17;;;;;;;0.30;0.30;;;;;;;;;;20897349;28;20318;-65
2022/11/18 18:24:20;;;;;;;1.67;0.30;;;;;;;;;;20949126;28;20229;-68
2022/11/18 18:34:22;;;;;;;0.47;0.20;;;;;;;;;;20905133;28;20517;-67
2022/11/18 18:46:27;;;;;;;1.80;0.60;;;;;;;;;;20911225;28;20332;-67
2022/11/18 18:54:46;;;;;;;1.00;0.50;;;;;;;;;;20862637;28;20341;-67
2022/11/18 19:04:48;;;;;;;1.10;0.53;;;;;;;;;;20926036;28;20260;-67
2022/11/18 19:14:50;;;;;;;1.30;0.43;;;;;;;;;;20978531;28;20237;-67
2022/11/18 19:24:54;;;;;;;1.50;0.43;;;;;;;;;;20958288;28;20201;-67
2022/11/18 19:34:55;;;;;;;1.13;0.87;;;;;;;;;;20979678;28;20216;-67
2022/11/18 19:44:58;;;;;;;0.67;0.40;;;;;;;;;;20975721;28;20197;-67
2022/11/18 19:55:00;;;;;;;2.30;0.57;;;;;;;;;;20950339;28;20229;-68
2022/11/18 20:15:22;;;;;;;1.30;0.87;;;;;;;;;;20914470;28;20696;-67
2022/11/18 20:25:24;;;;;;;2.43;1.20;;;;;;;;;;20912434;28;20263;-67
2022/11/18 20:35:26;;;;;;;1.80;0.73;;;;;;;;;;20954592;28;20227;-68
2022/11/18 20:45:28;;;;;;;0.77;0.50;;;;;;;;;;20969439;28;20263;-66
2022/11/18 20:55:29;;;;;;;1.87;0.40;;;;;;;;;;20984824;28;20213;-65
2022/11/18 21:05:32;;;;;;;2.17;0.73;;;;;;;;;;20992183;28;20300;-67
2022/11/18 21:15:34;;;;;;;1.20;0.70;;;;;;;;;;20992117;28;20233;-67
2022/11/18 21:25:37;;;;;;;1.80;0.80;;;9.70;99.90;;;;;;20992689;28;20301;-67
2022/11/18 21:35:39;;;;;;;0.93;0.60;;;;;;;;;;20974344;28;20266;-66
2022/11/18 21:45:42;;;;;;;1.60;0.80;;;;;;;;;;20989474;28;20221;-66
2022/11/18 21:55:43;;;;;;;0.93;0.70;;;;;;;;;;20989683;28;20213;-66
2022/11/18 22:05:45;;;;;;;3.37;0.90;;;;;;;;;;20906674;28;20217;-66
2022/11/18 22:15:47;;;;;;;1.63;0.73;;;;;;;;;;21033882;22;20614;-65
2022/11/18 22:25:55;;;;;;;2.97;0.60;;;;;;;;;;21040400;28;20245;-65
2022/11/18 22:36:04;;;;;;;1.73;0.87;;;9.60;99.90;;;;;;21021675;28;20208;-65
2022/11/18 22:46:07;;;;;;;2.97;0.80;;;;;;;;;;21021935;28;20237;-65
2022/11/18 22:56:12;;;;;;;1.50;0.70;;;9.80;99.90;;;;;;21062195;28;20269;-65
2022/11/18 23:06:14;;;;;;;1.03;0.60;;;;;;;;;;20997524;28;20220;-65
2022/11/18 23:16:16;;;;;;;1.83;1.40;;;;;;;;;;21018470;28;20250;-63
2022/11/18 23:26:18;;;;;;;1.73;0.60;;;;;;;;;;21016829;28;20212;-65
2022/11/18 23:36:21;;;;;;;1.10;0.40;;;;;;;;;;21051592;28;20236;-65
2022/11/18 23:46:24;;;;;;;0.53;0.33;;;;;;;;;;21019654;28;20201;-65
2022/11/18 23:56:26;;;;;;;1.30;0.30;;;10.10;99.90;;;;;;21051684;28;20228;-64
